Time;durP1;ratioP1;P1;durP2;ratioP2;P2;SDS_P1;SDS_P2;PMS_P1;PMS_P2;Temp;Humidity;BMP_temperature;BMP_pressure;BME280_temperature;BME280_humidity;BME280_pressure;Samples;Min_cycle;Max_cycle;Signal;HPM_P1;HPM_P2
2023/06/17 00:00:56;;;;;;;14.68;7.53;;;17.40;99.90;;;;;;4858902;29;23066;-77
2023/06/17 00:03:24;;;;;;;13.68;6.72;;;17.40;99.90;;;;;;4854768;29;20044;-77
2023/06/17 00:05:51;;;;;;;16.27;6.72;;;17.40;99.90;;;;;;4893170;29;20067;-77
2023/06/17 00:08:19;;;;;;;12.80;6.78;;;17.30;99.90;;;;;;4883590;29;20056;-77
2023/06/17 00:10:46;;;;;;;11.70;6.43;;;17.30;99.90;;;;;;4893797;29;20052;-77
2023/06/17 00:13:19;;;;;;;11.43;7.25;;;17.30;99.90;;;;;;4898942;29;20694;-77
2023/06/17 00:15:50;;;;;;;11.32;6.45;;;17.30;99.90;;;;;;4877927;29;20485;-77
2023/06/17 00:18:19;;;;;;;12.35;6.90;;;17.20;99.90;;;;;;4890479;29;20052;-77
2023/06/17 00:20:48;;;;;;;10.07;6.13;;;17.20;99.90;;;;;;4891538;29;20068;-77
2023/06/17 00:23:15;;;;;;;12.18;6.50;;;17.20;99.90;;;;;;4877609;29;20051;-76
2023/06/17 00:25:42;;;;;;;12.52;7.80;;;17.20;99.90;;;;;;4869695;29;20044;-77
2023/06/17 00:28:10;;;;;;;12.57;7.00;;;17.10;99.90;;;;;;4882202;29;20716;-77
2023/06/17 00:30:37;;;;;;;14.93;7.47;;;17.10;99.90;;;;;;4882798;29;20100;-76
2023/06/17 00:33:05;;;;;;;12.57;6.82;;;17.10;99.90;;;;;;4874049;29;20040;-77
2023/06/17 00:35:34;;;;;;;14.52;6.85;;;17.10;99.90;;;;;;4897062;29;20072;-77
2023/06/17 00:38:02;;;;;;;13.23;6.68;;;17.10;99.90;;;;;;4889331;29;20045;-77
2023/06/17 00:40:31;;;;;;;13.50;6.78;;;17.10;99.90;;;;;;4899534;29;20075;-76
2023/06/17 00:42:59;;;;;;;12.93;6.78;;;17.00;99.90;;;;;;4891942;29;20132;-77
2023/06/17 00:45:26;;;;;;;10.13;6.82;;;17.00;99.90;;;;;;4880153;29;20044;-77
2023/06/17 00:47:53;;;;;;;12.48;7.07;;;16.90;99.90;;;;;;4889893;29;20044;-77
2023/06/17 00:50:21;;;;;;;11.27;7.10;;;16.90;99.90;;;;;;4887371;29;20044;-77
2023/06/17 00:52:53;;;;;;;13.40;6.93;;;16.90;99.90;;;;;;4885829;29;20044;-77
2023/06/17 00:55:21;;;;;;;11.35;6.22;;;16.90;99.90;;;;;;4887669;29;20070;-77
2023/06/17 00:57:49;;;;;;;14.43;7.43;;;16.90;99.90;;;;;;4862719;29;20040;-77
2023/06/17 01:00:16;;;;;;;11.13;7.00;;;16.90;99.90;;;;;;4850372;29;20524;-76
2023/06/17 01:02:45;;;;;;;8.57;5.88;;;16.90;99.90;;;;;;4864267;29;20059;-77
2023/06/17 01:05:16;;;;;;;9.98;5.85;;;16.90;99.90;;;;;;4861286;29;20515;-77
2023/06/17 01:07:57;;;;;;;11.38;6.18;;;16.80;99.90;;;;;;4872924;29;20835;-77
2023/06/17 01:10:55;;;;;;;12.35;6.28;;;16.80;99.90;;;;;;4861306;29;20063;-77
2023/06/17 01:13:28;;;;;;;11.73;7.05;;;16.80;99.90;;;;;;4833927;29;20730;-77
2023/06/17 01:15:56;;;;;;;14.20;7.07;;;16.70;99.90;;;;;;4860709;29;20135;-76
2023/06/17 01:18:24;;;;;;;11.30;7.35;;;16.70;99.90;;;;;;4850190;29;20058;-76
2023/06/17 01:20:53;;;;;;;11.77;6.57;;;16.70;99.90;;;;;;4869016;29;20044;-77
2023/06/17 01:23:34;;;;;;;13.57;6.15;;;16.60;99.90;;;;;;4840064;29;20044;-76
2023/06/17 01:26:02;;;;;;;11.77;6.47;;;16.60;99.90;;;;;;4879977;29;20820;-76
2023/06/17 01:28:30;;;;;;;15.73;7.32;;;16.60;99.90;;;;;;4853211;29;20053;-76
2023/06/17 01:30:58;;;;;;;13.38;6.57;;;16.60;99.90;;;;;;4839654;29;20139;-77
2023/06/17 01:33:26;;;;;;;12.95;7.40;;;16.60;99.90;;;;;;4837111;29;20052;-76
2023/06/17 01:36:10;;;;;;;12.30;6.43;;;16.60;99.90;;;;;;4847137;29;20045;-77
2023/06/17 01:38:42;;;;;;;11.57;7.00;;;16.60;99.90;;;;;;4867533;29;20064;-77
2023/06/17 01:41:13;;;;;;;12.50;6.68;;;16.60;99.90;;;;;;4852393;29;20047;-77
2023/06/17 01:43:42;;;;;;;12.47;7.33;;;16.50;99.90;;;;;;4839983;29;20048;-77
2023/06/17 01:46:13;;;;;;;13.60;7.32;;;16.50;99.90;;;;;;4836921;29;20302;-77
2023/06/17 01:48:41;;;;;;;11.10;6.25;;;16.50;99.90;;;;;;4837383;29;20056;-76
2023/06/17 01:51:08;;;;;;;13.38;6.78;;;16.50;99.90;;;;;;4872088;29;20499;-76
2023/06/17 01:53:35;;;;;;;10.48;5.85;;;16.50;99.90;;;;;;4857652;29;20064;-76
2023/06/17 01:56:02;;;;;;;12.15;6.30;;;16.50;99.90;;;;;;4865646;29;20056;-77
2023/06/17 01:58:30;;;;;;;14.38;6.38;;;16.40;99.90;;;;;;4878469;29;20397;-75
2023/06/17 02:00:57;;;;;;;12.68;7.10;;;16.40;99.90;;;;;;4849091;29;20400;-76
2023/06/17 02:03:26;;;;;;;10.20;6.18;;;16.40;99.90;;;;;;4847949;29;20052;-76
2023/06/17 02:05:53;;;;;;;9.95;5.80;;;16.40;99.90;;;;;;4839649;29;20037;-76
2023/06/17 02:08:22;;;;;;;11.25;6.35;;;16.30;99.90;;;;;;4842900;29;20056;-76
2023/06/17 02:10:50;;;;;;;10.10;6.18;;;16.30;99.90;;;;;;4838874;29;20147;-76
2023/06/17 02:13:18;;;;;;;11.82;6.22;;;16.30;99.90;;;;;;4866252;29;20421;-76
2023/06/17 02:15:45;;;;;;;9.57;5.90;;;16.30;99.90;;;;;;4864699;29;20056;-76
2023/06/17 02:18:12;;;;;;;11.65;6.25;;;16.30;99.90;;;;;;4866551;29;20048;-76
2023/06/17 02:20:39;;;;;;;14.55;7.05;;;16.20;99.90;;;;;;4851843;29;20064;-76
2023/06/17 02:23:07;;;;;;;12.35;7.25;;;16.20;99.90;;;;;;4865840;29;20095;-76
2023/06/17 02:25:36;;;;;;;11.88;6.50;;;16.20;99.90;;;;;;4853047;29;20060;-76
2023/06/17 02:28:03;;;;;;;10.95;6.43;;;16.20;99.90;;;;;;4855773;29;20052;-76
2023/06/17 02:30:31;;;;;;;14.10;7.07;;;16.20;99.90;;;;;;4863726;29;20088;-76
2023/06/17 02:32:59;;;;;;;11.27;6.60;;;16.10;99.90;;;;;;4834212;29;20138;-76
2023/06/17 02:35:27;;;;;;;11.50;5.85;;;16.10;99.90;;;;;;4858863;29;20052;-76
2023/06/17 02:37:54;;;;;;;11.45;5.97;;;16.20;99.90;;;;;;4852192;29;20047;-76
2023/06/17 02:40:22;;;;;;;10.52;6.10;;;16.10;99.90;;;;;;4853288;29;20048;-76
2023/06/17 02:42:51;;;;;;;11.32;6.50;;;16.10;99.90;;;;;;4842985;29;20496;-76
2023/06/17 02:45:19;;;;;;;10.00;6.05;;;16.10;99.90;;;;;;4866847;29;20044;-76
2023/06/17 02:47:46;;;;;;;11.63;6.50;;;16.10;99.90;;;;;;4853501;29;20056;-76
2023/06/17 02:50:13;;;;;;;13.10;6.50;;;16.00;99.90;;;;;;4846645;29;20421;-76
2023/06/17 02:52:40;;;;;;;11.18;6.47;;;16.00;99.90;;;;;;4845376;29;20163;-76
2023/06/17 02:55:08;;;;;;;11.52;7.18;;;16.00;99.90;;;;;;4856127;29;20059;-76
2023/06/17 02:57:35;;;;;;;12.18;7.05;;;16.00;99.90;;;;;;4860748;29;20045;-76
2023/06/17 03:00:08;;;;;;;11.05;6.63;;;16.00;99.90;;;;;;4850086;29;22461;-76
2023/06/17 03:02:36;;;;;;;11.80;6.53;;;16.00;99.90;;;;;;4857303;29;20272;-76
2023/06/17 03:05:06;;;;;;;11.38;7.22;;;15.90;99.90;;;;;;4844111;29;20052;-76
2023/06/17 03:07:36;;;;;;;11.05;6.13;;;16.00;99.90;;;;;;4844547;29;20275;-76
2023/06/17 03:10:04;;;;;;;10.55;6.18;;;16.00;99.90;;;;;;4850775;29;20056;-76
2023/06/17 03:12:38;;;;;;;11.82;7.13;;;16.00;99.90;;;;;;4840207;29;20049;-76
2023/06/17 03:15:08;;;;;;;14.05;6.93;;;15.90;99.90;;;;;;4861125;29;20056;-76
2023/06/17 03:17:37;;;;;;;10.88;6.90;;;15.90;99.90;;;;;;4835551;29;20163;-76
2023/06/17 03:20:06;;;;;;;14.73;6.47;;;15.90;99.90;;;;;;4859050;29;20056;-76
2023/06/17 03:22:34;;;;;;;12.20;6.28;;;15.90;99.90;;;;;;4838067;29;20789;-76
2023/06/17 03:25:01;;;;;;;12.77;6.35;;;16.00;99.90;;;;;;4836907;29;20048;-76
2023/06/17 03:27:28;;;;;;;9.48;5.80;;;16.00;99.90;;;;;;4834475;29;20721;-76
2023/06/17 03:29:56;;;;;;;12.30;5.88;;;16.00;99.90;;;;;;4849419;29;20828;-76
2023/06/17 03:32:23;;;;;;;12.30;5.97;;;16.00;99.90;;;;;;4864506;29;20041;-76
2023/06/17 03:34:52;;;;;;;12.40;6.50;;;16.00;99.90;;;;;;4841552;29;20052;-76
2023/06/17 03:37:23;;;;;;;11.50;6.75;;;16.00;99.90;;;;;;4859996;29;20068;-76
2023/06/17 03:39:50;;;;;;;10.05;6.15;;;16.00;99.90;;;;;;4863995;29;20514;-76
2023/06/17 03:42:17;;;;;;;11.80;6.88;;;16.00;99.90;;;;;;4852321;29;22279;-76
2023/06/17 03:44:45;;;;;;;12.55;7.30;;;16.00;99.90;;;;;;4872719;29;20051;-76
2023/06/17 03:47:12;;;;;;;11.18;6.50;;;16.00;99.90;;;;;;4861749;29;20044;-76
2023/06/17 03:49:40;;;;;;;12.73;7.10;;;16.10;99.90;;;;;;4851516;29;20048;-76
2023/06/17 03:52:09;;;;;;;12.27;6.55;;;16.10;99.90;;;;;;4853065;29;20044;-76
2023/06/17 03:54:39;;;;;;;9.50;6.85;;;16.20;99.90;;;;;;4860491;29;22618;-75
2023/06/17 03:57:06;;;;;;;12.10;6.60;;;16.20;99.90;;;;;;4852138;29;20048;-76
2023/06/17 03:59:35;;;;;;;11.82;6.70;;;16.20;99.90;;;;;;4837377;29;20052;-76
2023/06/17 04:02:02;;;;;;;10.40;6.50;;;16.20;99.90;;;;;;4863198;29;20080;-76
2023/06/17 04:04:32;;;;;;;9.73;6.40;;;16.20;99.90;;;;;;4853083;29;20080;-76
2023/06/17 04:07:00;;;;;;;13.30;9.18;;;16.20;99.90;;;;;;4848180;29;20059;-76
2023/06/17 04:09:30;;;;;;;13.95;8.43;;;16.30;99.90;;;;;;4875490;29;20048;-76
2023/06/17 04:11:57;;;;;;;14.43;8.80;;;16.30;99.90;;;;;;4846775;29;20178;-76
2023/06/17 04:14:24;;;;;;;16.48;9.75;;;16.30;99.90;;;;;;4834627;29;20045;-76
2023/06/17 04:16:51;;;;;;;20.80;14.48;;;16.40;99.90;;;;;;4837681;29;20412;-76
2023/06/17 04:19:18;;;;;;;24.73;18.52;;;16.40;99.90;;;;;;4861227;29;20530;-77
2023/06/17 04:21:46;;;;;;;28.38;19.50;;;16.50;99.90;;;;;;4847087;29;22252;-76
2023/06/17 04:24:13;;;;;;;25.95;18.50;;;16.60;99.90;;;;;;4846796;29;20053;-76
2023/06/17 04:26:43;;;;;;;18.88;11.68;;;16.70;99.90;;;;;;4882823;29;20074;-76
2023/06/17 04:29:11;;;;;;;21.90;14.10;;;16.80;99.90;;;;;;4841967;29;20056;-76
2023/06/17 04:31:40;;;;;;;16.00;9.15;;;16.80;99.90;;;;;;4862301;29;20139;-77
2023/06/17 04:34:12;;;;;;;16.95;9.05;;;17.00;99.90;;;;;;4848546;29;20048;-76
2023/06/17 04:36:40;;;;;;;10.93;7.05;;;17.00;99.90;;;;;;4867869;29;20090;-77
2023/06/17 04:39:07;;;;;;;13.05;7.82;;;17.00;99.90;;;;;;4856608;29;20059;-77
2023/06/17 04:41:37;;;;;;;10.90;6.45;;;17.20;99.90;;;;;;4849629;29;20044;-77
2023/06/17 04:44:05;;;;;;;10.13;6.45;;;17.20;99.90;;;;;;4862367;29;20060;-77
2023/06/17 04:46:32;;;;;;;10.32;6.10;;;17.10;99.90;;;;;;4871704;29;20724;-77
2023/06/17 04:49:00;;;;;;;9.98;6.22;;;17.20;99.90;;;;;;4850781;29;20142;-77
2023/06/17 04:51:28;;;;;;;10.93;6.32;;;17.30;99.90;;;;;;4836241;29;20053;-77
2023/06/17 04:53:56;;;;;;;9.52;5.68;;;17.50;99.90;;;;;;4850516;29;20089;-78
2023/06/17 04:56:26;;;;;;;9.63;6.63;;;17.60;99.90;;;;;;4851320;29;20183;-77
2023/06/17 04:58:53;;;;;;;8.55;5.63;;;17.50;99.90;;;;;;4855676;29;20119;-77
2023/06/17 05:01:21;;;;;;;7.82;5.50;;;17.70;99.90;;;;;;4853820;29;20067;-77
2023/06/17 05:03:50;;;;;;;9.75;5.78;;;17.90;99.90;;;;;;4862723;29;20057;-77
2023/06/17 05:06:18;;;;;;;9.40;6.13;;;17.90;99.90;;;;;;4846532;29;20060;-77
2023/06/17 05:08:45;;;;;;;8.88;6.10;;;18.00;99.90;;;;;;4834860;29;20052;-78
2023/06/17 05:11:13;;;;;;;8.85;5.20;;;18.00;99.90;;;;;;4849169;29;20151;-77
2023/06/17 05:13:41;;;;;;;7.47;5.20;;;18.00;99.90;;;;;;4863594;29;20057;-78
2023/06/17 05:16:09;;;;;;;7.65;5.80;;;17.60;99.90;;;;;;4846678;29;20705;-78
2023/06/17 05:18:38;;;;;;;7.25;5.60;;;18.10;99.90;;;;;;4851652;29;20167;-78
2023/06/17 05:21:05;;;;;;;8.80;6.00;;;18.10;99.90;;;;;;4839964;29;20060;-77
2023/06/17 05:23:32;;;;;;;8.90;6.00;;;18.30;99.90;;;;;;4852166;29;20524;-77
2023/06/17 05:26:00;;;;;;;9.35;6.32;;;18.40;99.90;;;;;;4859095;29;20526;-77
2023/06/17 05:28:27;;;;;;;7.85;5.80;;;18.00;99.90;;;;;;4851823;29;20508;-78
2023/06/17 05:30:54;;;;;;;9.20;6.18;;;18.50;99.70;;;;;;4860312;29;20088;-77
2023/06/17 05:33:24;;;;;;;6.53;4.90;;;18.60;99.80;;;;;;4846930;29;20291;-77
2023/06/17 05:35:51;;;;;;;8.57;6.03;;;18.60;98.40;;;;;;4854711;29;20057;-77
2023/06/17 05:38:18;;;;;;;9.50;5.88;;;18.70;98.60;;;;;;4872509;29;21095;-78
2023/06/17 05:40:45;;;;;;;9.07;5.30;;;18.80;98.50;;;;;;4849757;29;20550;-77
2023/06/17 05:43:12;;;;;;;8.20;5.03;;;19.00;97.60;;;;;;4862414;29;20144;-78
2023/06/17 05:45:40;;;;;;;7.43;5.35;;;19.10;96.90;;;;;;4838934;29;20146;-78
2023/06/17 05:48:08;;;;;;;9.10;5.25;;;19.20;96.20;;;;;;4853127;29;22389;-78
2023/06/17 05:50:36;;;;;;;7.97;5.35;;;19.30;96.60;;;;;;4836305;29;20044;-78
2023/06/17 05:53:03;;;;;;;6.55;4.53;;;19.40;96.00;;;;;;4850441;29;20681;-77
2023/06/17 05:55:31;;;;;;;7.53;4.88;;;19.50;95.00;;;;;;4844113;29;20044;-77
2023/06/17 05:57:58;;;;;;;7.35;4.90;;;19.50;95.00;;;;;;4831353;29;20060;-77
2023/06/17 06:00:26;;;;;;;6.45;4.65;;;19.70;95.10;;;;;;4851053;29;20155;-78
2023/06/17 06:02:54;;;;;;;6.82;4.63;;;19.80;94.70;;;;;;4846538;29;20052;-77
2023/06/17 06:05:22;;;;;;;8.48;5.13;;;19.80;93.90;;;;;;4854892;29;20419;-78
2023/06/17 06:07:50;;;;;;;6.72;4.10;;;19.90;92.80;;;;;;4857899;29;20056;-78
2023/06/17 06:10:17;;;;;;;10.75;4.95;;;19.90;92.60;;;;;;4855919;29;22414;-78
2023/06/17 06:12:50;;;;;;;6.43;4.50;;;20.00;93.20;;;;;;4842490;29;20198;-77
2023/06/17 06:15:17;;;;;;;6.28;4.15;;;20.20;92.50;;;;;;4850149;29;20061;-78
2023/06/17 06:17:44;;;;;;;5.93;4.65;;;20.20;91.90;;;;;;4843482;29;20052;-77
2023/06/17 06:20:12;;;;;;;6.43;4.18;;;20.30;92.10;;;;;;4842736;29;20143;-78
2023/06/17 06:22:40;;;;;;;6.60;4.22;;;20.50;90.80;;;;;;4857132;29;20060;-77
2023/06/17 06:25:07;;;;;;;5.72;3.78;;;19.10;90.10;;;;;;4846287;29;20078;-78
2023/06/17 06:27:35;;;;;;;5.70;4.20;;;20.40;90.20;;;;;;4845257;29;22904;-78
2023/06/17 06:30:04;;;;;;;5.22;4.32;;;20.40;90.50;;;;;;4874878;29;20048;-77
2023/06/17 06:32:36;;;;;;;5.30;4.10;;;20.70;89.90;;;;;;4883898;29;20203;-78
2023/06/17 06:35:04;;;;;;;6.10;4.05;;;20.90;88.60;;;;;;4826570;29;20200;-78
2023/06/17 06:37:32;;;;;;;6.50;4.05;;;20.90;87.80;;;;;;4831736;29;20637;-78
2023/06/17 06:40:00;;;;;;;5.63;3.33;;;20.80;88.00;;;;;;4861266;29;20048;-78
2023/06/17 06:42:30;;;;;;;7.40;4.47;;;20.80;87.60;;;;;;4853730;29;20480;-78
2023/06/17 06:45:14;;;;;;;6.15;3.80;;;21.00;86.80;;;;;;4860034;29;23036;-78
2023/06/17 06:47:43;;;;;;;6.97;4.00;;;21.40;89.90;;;;;;4837500;29;20072;-78
2023/06/17 06:50:11;;;;;;;5.18;4.03;;;21.60;86.40;;;;;;4839682;29;20052;-78
2023/06/17 06:52:38;;;;;;;5.57;3.70;;;21.60;86.00;;;;;;4839494;29;20049;-78
2023/06/17 06:55:05;;;;;;;5.50;3.95;;;21.60;82.00;;;;;;4858664;29;22350;-78
2023/06/17 06:57:33;;;;;;;5.10;3.60;;;21.80;82.90;;;;;;4848838;29;20182;-75
2023/06/17 07:00:00;;;;;;;4.90;3.35;;;21.90;81.50;;;;;;4864669;29;20645;-79
2023/06/17 07:02:28;;;;;;;5.65;3.53;;;21.90;80.50;;;;;;4861373;29;20206;-78
2023/06/17 07:04:56;;;;;;;5.25;3.67;;;22.00;80.40;;;;;;4865478;29;20048;-78
2023/06/17 07:07:31;;;;;;;5.82;3.20;;;22.10;80.80;;;;;;4845445;29;20191;-79
2023/06/17 07:09:59;;;;;;;4.13;3.03;;;22.30;79.50;;;;;;4845515;29;20139;-77
2023/06/17 07:12:27;;;;;;;4.90;3.22;;;22.40;80.10;;;;;;4853727;29;20507;-79
2023/06/17 07:14:57;;;;;;;4.63;3.03;;;22.40;77.30;;;;;;4862704;29;20404;-79
2023/06/17 07:17:24;;;;;;;7.07;3.88;;;22.20;77.60;;;;;;4841769;29;20056;-78
2023/06/17 07:19:51;;;;;;;4.85;3.42;;;22.20;77.40;;;;;;4873978;29;20060;-78
2023/06/17 07:22:19;;;;;;;4.90;2.95;;;22.20;77.10;;;;;;4862613;29;20703;-79
2023/06/17 07:24:46;;;;;;;5.63;3.17;;;22.40;77.50;;;;;;4854795;29;20044;-77
2023/06/17 07:27:13;;;;;;;5.80;2.97;;;22.60;77.20;;;;;;4852044;29;20057;-76
2023/06/17 07:29:41;;;;;;;3.70;2.63;;;22.60;75.40;;;;;;4835952;29;20079;-76
2023/06/17 07:32:08;;;;;;;5.00;3.20;;;22.40;76.20;;;;;;4858801;29;20098;-78
2023/06/17 07:34:37;;;;;;;8.13;3.92;;;22.20;74.40;;;;;;4860351;29;20080;-78
2023/06/17 07:37:05;;;;;;;3.70;2.58;;;22.30;76.10;;;;;;4844035;29;20094;-78
2023/06/17 07:39:34;;;;;;;5.22;3.28;;;22.40;75.40;;;;;;4860956;29;20247;-78
2023/06/17 07:42:01;;;;;;;4.82;3.25;;;22.50;74.90;;;;;;4858902;29;20056;-77
2023/06/17 07:44:28;;;;;;;5.85;3.40;;;22.50;75.10;;;;;;4850479;29;20376;-77
2023/06/17 07:46:55;;;;;;;7.97;3.92;;;22.40;75.00;;;;;;4844707;29;20048;-77
2023/06/17 07:49:22;;;;;;;4.80;3.30;;;22.60;75.20;;;;;;4832319;29;20587;-79
2023/06/17 07:51:50;;;;;;;5.97;3.60;;;22.60;75.00;;;;;;4861558;29;20480;-79
2023/06/17 07:54:17;;;;;;;5.15;3.17;;;22.60;75.50;;;;;;4855814;29;20080;-78
2023/06/17 07:56:45;;;;;;;3.78;2.95;;;22.80;75.20;;;;;;4858853;29;22377;-79
2023/06/17 07:59:12;;;;;;;3.33;2.90;;;22.70;74.70;;;;;;4841225;29;20460;-79
2023/06/17 08:01:39;;;;;;;4.22;3.00;;;22.60;74.60;;;;;;4835689;29;20110;-79
2023/06/17 08:04:06;;;;;;;3.35;2.88;;;22.70;74.30;;;;;;4854837;29;20068;-79
2023/06/17 08:06:34;;;;;;;4.80;2.90;;;22.80;75.20;;;;;;4860491;29;20860;-78
2023/06/17 08:09:02;;;;;;;3.92;2.78;;;23.00;75.50;;;;;;4858742;29;20075;-79
2023/06/17 08:11:30;;;;;;;5.47;2.78;;;23.10;75.00;;;;;;4851852;29;20055;-80
2023/06/17 08:13:57;;;;;;;4.82;2.83;;;23.20;74.00;;;;;;4850435;29;20477;-79
2023/06/17 08:16:24;;;;;;;6.35;2.97;;;23.30;74.30;;;;;;4854939;29;20080;-80
2023/06/17 08:18:53;;;;;;;5.75;2.90;;;23.30;73.20;;;;;;4847085;29;20052;-79
2023/06/17 08:21:20;;;;;;;8.63;2.53;;;23.20;73.00;;;;;;4858672;29;20153;-78
2023/06/17 08:23:50;;;;;;;5.07;2.92;;;23.00;73.20;;;;;;4876566;29;20053;-79
2023/06/17 08:26:17;;;;;;;3.88;2.72;;;23.10;73.00;;;;;;4854904;29;20839;-79
2023/06/17 08:28:45;;;;;;;5.05;2.63;;;23.10;72.40;;;;;;4850460;29;20147;-77
2023/06/17 08:31:13;;;;;;;5.68;2.67;;;22.90;72.00;;;;;;4858680;29;20045;-80
2023/06/17 08:33:40;;;;;;;6.45;2.72;;;22.70;71.70;;;;;;4867671;29;20048;-79
2023/06/17 08:36:07;;;;;;;4.65;2.72;;;22.70;72.50;;;;;;4864252;29;20535;-78
2023/06/17 08:38:34;;;;;;;4.82;2.40;;;22.80;72.30;;;;;;4846995;29;22373;-78
2023/06/17 08:41:02;;;;;;;3.90;2.45;;;22.60;69.90;;;;;;4847398;29;20412;-79
2023/06/17 08:43:30;;;;;;;3.83;2.00;;;22.70;70.40;;;;;;4847105;29;20271;-78
2023/06/17 08:45:58;;;;;;;4.97;2.38;;;22.80;69.40;;;;;;4860186;29;20053;-79
2023/06/17 08:48:26;;;;;;;3.75;2.53;;;22.90;71.40;;;;;;4866850;29;20040;-79
2023/06/17 08:50:54;;;;;;;2.97;2.60;;;23.00;70.20;;;;;;4886511;29;20071;-79
2023/06/17 08:53:22;;;;;;;3.55;2.65;;;23.00;70.30;;;;;;4870715;29;20049;-80
2023/06/17 08:55:50;;;;;;;2.92;2.25;;;22.70;70.80;;;;;;4876664;29;20048;-79
2023/06/17 08:58:17;;;;;;;5.47;2.83;;;22.70;71.00;;;;;;4893049;29;20053;-78
2023/06/17 09:00:45;;;;;;;4.85;2.88;;;22.70;70.10;;;;;;4901100;29;20048;-79
2023/06/17 09:03:14;;;;;;;4.72;2.30;;;22.80;70.20;;;;;;4873790;29;20124;-78
2023/06/17 09:05:41;;;;;;;4.47;2.30;;;23.00;70.50;;;;;;4868187;29;20236;-79
2023/06/17 09:08:09;;;;;;;3.78;2.40;;;23.20;71.40;;;;;;4863774;29;20530;-80
2023/06/17 09:10:43;;;;;;;6.00;2.92;;;23.10;71.10;;;;;;4869691;29;20178;-80
2023/06/17 09:13:12;;;;;;;3.83;2.72;;;23.20;71.30;;;;;;4865692;29;20140;-80
2023/06/17 09:15:43;;;;;;;3.25;2.50;;;23.20;70.60;;;;;;4856198;29;20055;-79
2023/06/17 09:18:10;;;;;;;3.80;2.58;;;23.20;70.30;;;;;;4855510;29;20252;-80
2023/06/17 09:20:39;;;;;;;5.35;2.80;;;23.30;71.00;;;;;;4856081;29;20048;-79
2023/06/17 09:23:16;;;;;;;3.47;2.60;;;23.30;69.80;;;;;;4871496;29;20080;-78
2023/06/17 09:25:44;;;;;;;5.13;3.00;;;23.30;69.80;;;;;;4847084;29;20058;-78
2023/06/17 09:28:11;;;;;;;4.75;3.08;;;23.30;70.50;;;;;;4866619;29;20067;-80
2023/06/17 09:30:43;;;;;;;7.13;3.03;;;23.40;71.30;;;;;;4869740;29;22727;-79
2023/06/17 09:33:21;;;;;;;3.50;2.60;;;23.40;70.50;;;;;;4871923;29;20382;-79
2023/06/17 09:36:04;;;;;;;4.80;2.83;;;23.50;71.20;;;;;;4871066;29;20420;-78
2023/06/17 09:38:31;;;;;;;4.63;3.00;;;23.70;71.90;;;;;;4844104;29;20053;-78
2023/06/17 09:40:59;;;;;;;4.70;2.90;;;23.70;72.00;;;;;;4871484;29;20055;-78
2023/06/17 09:43:27;;;;;;;5.65;2.50;;;23.50;69.50;;;;;;4882985;29;20056;-79
2023/06/17 09:46:02;;;;;;;4.00;2.67;;;23.50;70.70;;;;;;4882577;29;20052;-79
2023/06/17 09:48:37;;;;;;;5.75;2.75;;;23.60;70.30;;;;;;4857090;29;20051;-78
2023/06/17 09:51:09;;;;;;;3.90;2.70;;;23.50;71.20;;;;;;4846527;29;23098;-80
2023/06/17 09:53:38;;;;;;;5.55;2.45;;;23.40;70.90;;;;;;4858910;29;22690;-81
2023/06/17 09:56:10;;;;;;;3.65;2.30;;;23.50;70.60;;;;;;4866135;29;20508;-80
2023/06/17 09:58:40;;;;;;;4.07;2.60;;;23.60;70.30;;;;;;4860712;29;20075;-80
2023/06/17 10:01:11;;;;;;;3.58;2.45;;;23.90;71.90;;;;;;4871034;29;20179;-80
2023/06/17 10:03:39;;;;;;;3.50;2.35;;;23.90;71.40;;;;;;4876162;29;20056;-80
2023/06/17 10:06:09;;;;;;;4.20;2.63;;;23.90;69.00;;;;;;4879396;29;22336;-81
2023/06/17 10:08:39;;;;;;;4.07;2.50;;;24.00;69.30;;;;;;4847701;29;20064;-82
2023/06/17 10:11:07;;;;;;;3.88;2.88;;;24.00;68.60;;;;;;4866905;29;20075;-82
2023/06/17 10:13:39;;;;;;;3.97;2.33;;;24.10;68.50;;;;;;4864984;29;20139;-81
2023/06/17 10:16:10;;;;;;;3.47;2.28;;;23.90;66.00;;;;;;4861098;29;20165;-80
2023/06/17 10:18:40;;;;;;;5.67;2.57;;;23.80;66.00;;;;;;4870466;29;20044;-82
2023/06/17 10:21:12;;;;;;;3.92;2.53;;;23.80;66.00;;;;;;4863943;29;20076;-81
2023/06/17 10:23:43;;;;;;;5.50;2.50;;;23.70;66.60;;;;;;4879514;29;20059;-80
2023/06/17 10:26:13;;;;;;;6.22;3.05;;;23.80;68.70;;;;;;4870142;29;20439;-80
2023/06/17 10:28:53;;;;;;;3.60;2.40;;;23.80;68.00;;;;;;4868594;29;20159;-78
2023/06/17 10:31:27;;;;;;;2.58;2.20;;;23.50;68.00;;;;;;4854644;29;20056;-80
2023/06/17 10:33:55;;;;;;;4.32;2.50;;;23.40;69.10;;;;;;4868382;29;20052;-80
2023/06/17 10:36:24;;;;;;;3.55;2.30;;;23.40;71.10;;;;;;4854668;29;20174;-81
2023/06/17 10:39:11;;;;;;;4.50;2.90;;;23.40;71.30;;;;;;4863076;29;20678;-81
2023/06/17 10:41:38;;;;;;;4.97;2.72;;;23.20;71.20;;;;;;4846728;29;20053;-80
2023/06/17 10:44:28;;;;;;;3.22;2.45;;;23.20;71.80;;;;;;4838572;29;20832;-80
2023/06/17 10:46:56;;;;;;;4.30;2.88;;;23.50;70.60;;;;;;4865031;29;20104;-80
2023/06/17 10:49:23;;;;;;;6.72;2.20;;;23.50;68.30;;;;;;4877714;29;20138;-80
2023/06/17 10:51:55;;;;;;;2.40;1.98;;;23.60;67.00;;;;;;4857612;29;20056;-80
2023/06/17 10:54:32;;;;;;;4.20;2.60;;;23.80;67.80;;;;;;4880851;29;20129;-80
2023/06/17 10:57:01;;;;;;;6.70;2.90;;;24.10;67.90;;;;;;4876983;29;25238;-81
2023/06/17 10:59:30;;;;;;;4.75;3.03;;;23.90;66.80;;;;;;4891246;29;20076;-79
2023/06/17 11:02:08;;;;;;;5.35;2.70;;;24.10;69.20;;;;;;4859492;29;20428;-80
2023/06/17 11:04:40;;;;;;;4.57;2.70;;;24.30;69.10;;;;;;4870195;29;22769;-81
2023/06/17 11:07:08;;;;;;;5.57;3.25;;;24.10;68.00;;;;;;4866078;29;20076;-82
2023/06/17 11:09:36;;;;;;;3.28;2.35;;;24.00;69.10;;;;;;4854222;29;20468;-79
2023/06/17 11:12:04;;;;;;;4.38;2.58;;;24.00;68.50;;;;;;4851683;29;20168;-78
2023/06/17 11:14:36;;;;;;;3.63;2.40;;;23.80;69.10;;;;;;4853103;29;20046;-80
2023/06/17 11:17:04;;;;;;;4.15;2.75;;;23.90;69.00;;;;;;4854043;29;20091;-78
2023/06/17 11:19:31;;;;;;;5.38;2.33;;;24.20;68.50;;;;;;4849501;29;20171;-78
2023/06/17 11:22:07;;;;;;;3.70;2.33;;;24.20;68.10;;;;;;4851515;29;20076;-78
2023/06/17 11:24:35;;;;;;;3.47;2.15;;;24.30;68.30;;;;;;4852894;29;20056;-79
2023/06/17 11:27:05;;;;;;;4.78;2.90;;;24.60;69.60;;;;;;4870681;29;20108;-78
2023/06/17 11:29:33;;;;;;;3.95;2.60;;;24.80;68.00;;;;;;4856938;29;20124;-78
2023/06/17 11:32:01;;;;;;;4.63;2.13;;;24.90;66.10;;;;;;4850935;29;20047;-78
2023/06/17 11:34:31;;;;;;;3.42;2.20;;;24.60;67.80;;;;;;4865595;29;20804;-78
2023/06/17 11:37:01;;;;;;;3.47;2.13;;;24.70;67.90;;;;;;4840981;29;20045;-79
2023/06/17 11:39:30;;;;;;;4.13;2.85;;;24.70;68.80;;;;;;4854810;29;20520;-78
2023/06/17 11:42:03;;;;;;;3.13;2.25;;;24.60;66.70;;;;;;4859707;29;20055;-78
2023/06/17 11:44:32;;;;;;;3.88;2.78;;;24.60;66.70;;;;;;4847774;29;20187;-79
2023/06/17 11:47:04;;;;;;;3.58;2.20;;;24.60;67.50;;;;;;4839871;29;20147;-77
2023/06/17 11:49:31;;;;;;;4.32;2.47;;;24.60;66.20;;;;;;4873840;29;20048;-78
2023/06/17 11:52:09;;;;;;;3.65;2.00;;;24.60;67.10;;;;;;4874632;29;20044;-79
2023/06/17 11:54:50;;;;;;;3.10;2.58;;;24.40;66.30;;;;;;4863735;29;20503;-78
2023/06/17 11:57:21;;;;;;;3.03;2.00;;;24.50;66.70;;;;;;4847003;29;20059;-78
2023/06/17 11:59:57;;;;;;;5.22;2.38;;;24.40;66.30;;;;;;4836141;29;20259;-80
2023/06/17 12:02:27;;;;;;;2.67;2.17;;;24.40;65.50;;;;;;4862474;29;20049;-79
2023/06/17 12:05:01;;;;;;;2.35;2.00;;;24.40;64.70;;;;;;4860612;29;20664;-78
2023/06/17 12:07:28;;;;;;;3.03;2.08;;;24.50;65.30;;;;;;4848968;29;20195;-77
2023/06/17 12:09:56;;;;;;;2.80;2.13;;;24.60;65.40;;;;;;4873550;29;20051;-79
2023/06/17 12:12:34;;;;;;;3.75;1.83;;;24.80;64.70;;;;;;4861388;29;20075;-81
2023/06/17 12:15:07;;;;;;;2.17;1.73;;;24.80;65.40;;;;;;4858629;29;20073;-80
2023/06/17 12:17:45;;;;;;;5.13;2.40;;;24.80;64.70;;;;;;4857223;29;20516;-82
2023/06/17 12:20:17;;;;;;;3.03;2.20;;;24.70;65.10;;;;;;4876176;29;20051;-81
2023/06/17 12:22:46;;;;;;;4.28;1.85;;;24.80;64.20;;;;;;4873414;29;20795;-79
2023/06/17 12:25:14;;;;;;;2.03;1.63;;;24.90;65.10;;;;;;4869883;29;20303;-80
2023/06/17 12:27:44;;;;;;;2.80;1.85;;;24.90;62.30;;;;;;4844232;29;20458;-79
2023/06/17 12:30:12;;;;;;;2.20;1.52;;;24.90;63.60;;;;;;4858263;29;20543;-80
2023/06/17 12:32:40;;;;;;;2.55;1.60;;;25.00;63.60;;;;;;4861220;29;20218;-80
2023/06/17 12:35:09;;;;;;;5.40;2.00;;;25.00;64.00;;;;;;4851834;29;20137;-80
2023/06/17 12:37:40;;;;;;;2.33;1.52;;;25.20;65.80;;;;;;4867957;29;20823;-80
2023/06/17 12:40:09;;;;;;;4.73;1.60;;;25.10;65.50;;;;;;4841613;29;20151;-79
2023/06/17 12:42:36;;;;;;;2.42;1.67;;;25.10;64.30;;;;;;4854146;29;20044;-80
2023/06/17 12:45:06;;;;;;;2.20;1.60;;;25.20;66.20;;;;;;4844636;29;20139;-79
2023/06/17 12:47:34;;;;;;;3.25;1.75;;;25.20;65.60;;;;;;4868487;29;20044;-79
2023/06/17 12:50:01;;;;;;;1.75;1.60;;;25.30;65.40;;;;;;4873199;29;20411;-80
2023/06/17 12:52:29;;;;;;;2.92;1.90;;;25.10;64.40;;;;;;4870687;29;20077;-80